1999 Tropical Cyclone ILSA (1999343S09095)


IBTrACS version v04r00. Visit IBTrACS website for data access.
Please direct all questions to the IBTrACS Q and A forum

Storm track - Intensity - Wind Radii - Intensity Data - Source Data - All data

Summary Information

Satellite image near maximum intensity
Storm ID 1999343S09095
Start Dec 8 22Z
Landfall Dec 17 06Z
Max Intensity 60 kt (Dec 15 06Z), 980 mb (Dec 11 21Z)
End Dec 17 12Z
ATCF IDs ,SH012000
Track status Best track data.

Storm track plot

Map of storm track

Intensity plots

Map of storm track

Radial wind information

Map of storm track

Position and Intensity Table

BASIN ISO_TIME_________ NATURE LAT LON WMO WIND WMO PRES USA WIND BOM WIND BOM PRES NEUMANN WIND
degrees north degrees east kts mb kts kts mb kts
SI 1999-12-08 22:00:00 NR -9.00 95.00 25 1002 25 1002
SI 1999-12-09 00:00:00 NR -9.02 95.18
SI 03:00:00 NR -9.06 95.44
SI 06:00:00 NR -9.09 95.71
SI 09:00:00 NR -9.12 95.98
SI 12:00:00 NR -9.15 96.25
SI 15:00:00 NR -9.17 96.53
SI 18:00:00 NR -9.19 96.81
SI 21:00:00 NR -9.20 97.10
SI 22:00:00 NR -9.20 97.20 25 1002 25 1002
SI 1999-12-10 00:00:00 TS -9.27 97.40 20 25 1001 20
SI 03:00:00 TS -9.38 97.68 20 25 1000 20
SI 04:00:00 TS -9.44 97.77 25 1000 20 25 1000 20
SI 06:00:00 TS -9.55 97.93 20 26 999 20
SI 09:00:00 TS -9.70 98.16 22 29 997 22
SI 10:00:00 TS -9.75 98.23 30 997 23 30 997 23
SI 12:00:00 TS -9.84 98.40 25 30 997 25
SI 15:00:00 TS -9.97 98.72 27 30 997 27
SI 16:00:00 TS -10.02 98.84 30 997 28 30 997 28
SI 18:00:00 TS -10.14 99.06 30 31 996 30
SI 21:00:00 TS -10.35 99.37 30 34 995 30
SI 22:00:00 TS -10.41 99.47 35 995 30 35 995 30
SI 1999-12-11 00:00:00 TS -10.54 99.68 30 36 993 30
SI 03:00:00 TS -10.68 99.99 32 39 990 32
SI 04:00:00 TS -10.73 100.09 40 990 33 40 990 33
SI 06:00:00 TS -10.84 100.28 35 43 988 35
SI 09:00:00 TS -11.01 100.57 37 48 985 37
SI 10:00:00 TS -11.07 100.68 50 985 38 50 985 38
SI 12:00:00 TS -11.19 100.90 40 50 985 40
SI 15:00:00 TS -11.36 101.24 40 50 985 40
SI 16:00:00 TS -11.42 101.34 50 985 40 50 985 40
SI 18:00:00 TS -11.54 101.55 40 51 983 40
SI 21:00:00 TS -11.72 101.83 40 54 980 40
SI 22:00:00 TS -11.78 101.93 55 980 40 55 980 40
SI 1999-12-12 00:00:00 TS -11.86 102.10 40 55 980 40
SI 03:00:00 TS -11.96 102.38 42 55 980 42
SI 04:00:00 TS -11.99 102.47 55 980 43 55 980 43
SI 06:00:00 TS -12.07 102.62 45 53 981 45
SI 09:00:00 TS -12.19 102.80 45 50 984 45
SI 10:00:00 TS -12.23 102.85 50 985 45 50 985 45
SI 12:00:00 TS -12.28 102.99 45 50 985 45
SI 15:00:00 TS -12.34 103.29 45 50 985 45
SI 16:00:00 TS -12.35 103.40 50 985 45 50 985 45
SI 18:00:00 TS -12.37 103.62 45 50 985 45
SI 21:00:00 TS -12.37 103.93 47 50 985 47
SI 22:00:00 TS -12.37 104.04 50 985 48 50 985 48
SI 1999-12-13 00:00:00 TS -12.37 104.25 50 46 986 50
SI 03:00:00 TS -12.37 104.60 52 41 989 52
SI 04:00:00 TS -12.37 104.72 40 990 53 40 990 53
SI 06:00:00 TS -12.37 104.97 55 40 990 55
SI 09:00:00 TS -12.37 105.35 55 40 990 55
SI 10:00:00 TS -12.37 105.49 40 990 55 40 990 55
SI 12:00:00 TS -12.37 105.77 55 40 990 55
SI 15:00:00 TS -12.38 106.21 55 40 990 55
SI 16:00:00 TS -12.38 106.36 40 990 55 40 990 55
SI 18:00:00 TS -12.37 106.64 55 40 990 55
SI 21:00:00 TS -12.30 107.07 55 40 990 55
SI 22:00:00 TS -12.28 107.21 40 990 55 40 990 55
SI 1999-12-14 00:00:00 TS -12.23 107.51 55 40 990 55
SI 03:00:00 TS -12.20 108.01 55 40 990 55
SI 04:00:00 TS -12.19 108.18 40 990 55 40 990 55
SI 06:00:00 TS -12.17 108.52 55 40 990 55
SI 09:00:00 TS -12.13 108.98 55 40 990 55
SI 10:00:00 TS -12.12 109.12 40 990 55 40 990 55
SI 12:00:00 TS -12.10 109.41 55 40 990 55
SI 15:00:00 TS -12.09 109.87 55 40 990 55
SI 16:00:00 TS -12.09 110.03 40 990 55 40 990 55
SI 18:00:00 TS -12.11 110.35 55 40 990 55
SI 21:00:00 TS -12.14 110.79 55 40 990 55
SI 22:00:00 TS -12.16 110.94 40 990 55 40 990 55
SI 1999-12-15 00:00:00 TS -12.21 111.27 55 40 990 55
SI 03:00:00 TS -12.34 111.88 57 40 990 57
SI 04:00:00 TS -12.40 112.09 40 990 58 40 990 58
SI 06:00:00 TS -12.51 112.52 60 40 990 60
SI 09:00:00 TS -12.66 113.05 60 40 990 60
SI 10:00:00 TS -12.72 113.22 40 990 60 40 990 60
SI 12:00:00 TS -12.90 113.55 60 40 990 60
SI 15:00:00 TS -13.27 114.05 60 40 991 60
SI 16:00:00 TS -13.41 114.23 40 992 60 40 992 60
SI 18:00:00 TS -13.75 114.61 60 40 992 60
SI 21:00:00 TS -14.36 115.26 60 40 992 60
SI 22:00:00 TS -14.57 115.50 40 992 60 40 992 60
SI 1999-12-16 00:00:00 TS -14.98 115.95 60 40 992 60
SI 03:00:00 TS -15.51 116.60 55 40 992 55
SI 04:00:00 TS -15.69 116.82 40 992 53 40 992 53
SI 06:00:00 TS -16.06 117.28 50 40 992 50
SI 07:00:00 TS -16.26 117.51 40 992 49 40 992 49
SI 09:00:00 TS -16.69 117.96 47 36 993 47
SI 10:00:00 TS -16.90 118.16 35 994 46 35 994 46
SI 12:00:00 TS -17.26 118.50 45 35 994 45
SI 15:00:00 TS -17.75 118.89 47 35 994 47
SI 16:00:00 TS -17.91 119.01 35 994 48 35 994 48
SI 18:00:00 TS -18.24 119.26 50 35 994 50
SI 21:00:00 TS -18.69 119.65 52 35 994 52
SI 22:00:00 TS -18.83 119.78 35 994 53 35 994 53
SI 1999-12-17 00:00:00 TS -19.12 120.04 55 35 994 55
SI 03:00:00 TS -19.55 120.44 45 35 994 45
SI 04:00:00 TS -19.69 120.57 35 994 41 35 994 41
SI 06:00:00 TS -19.94 120.84 35 35 994 35
SI 07:00:00 TS -20.07 120.97 35 995 34 35 995 34
SI 09:00:00 TS -20.32 121.26 32 28 995 32
SI 10:00:00 TS -20.47 121.42 25 995 31 25 995 31
SI 12:00:00 TS -20.80 121.80 30 30

Source Information

Agency Information
USA bsh012000.txt
TOKYO
CMA
HKO
NEWDELHI
REUNION
BOM IDCKMSTM0S.csv:Line=20400:ILSA
NADI
WELLINGTON
DS824
TD9636
TD9635
NEUMANN tracks.sh:Storm=1175:ILSA:01S:BSH012000
MLC

All available IBTrACS Data

SEASON BASIN SUBBASIN ISO_TIME_________ NATURE LAT LON WMO WIND WMO PRES WMO AGENCY DIST2LAND LANDFALL IFLAG USA AGENCY USA ATCF_ID USA LAT USA LON USA WIND USA SSHS BOM LAT BOM LON BOM TYPE BOM WIND BOM PRES BOM CI BOM ROCI BOM POS_METHOD BOM PRES_METHOD NEUMANN LAT NEUMANN LON NEUMANN CLASS NEUMANN WIND STORM SPEED STORM DIR
Year degrees north degrees east kts mb km km degrees north degrees east kts 1 degrees north degrees east kts mb 1 nmile degrees north degrees east kts kts degrees
2000 SI WA 1999-12-08 22:00:00 NR -9.00 95.00 25 1002 bom 924 914 ______O_______ -1 -9.00 95.00 20 25 1002 2.00 161 3 5 5 98
2000 SI WA 1999-12-09 00:00:00 NR -9.02 95.18 914 904 ______P_______ -1 -9.02 95.18 20 5 98
2000 SI WA 03:00:00 NR -9.06 95.44 914 900 ______P_______ -1 -9.06 95.44 20 5 97
2000 SI WA 06:00:00 NR -9.09 95.71 900 887 ______P_______ -1 -9.09 95.71 20 5 97
2000 SI WA 09:00:00 NR -9.12 95.98 887 878 ______P_______ -1 -9.12 95.98 20 5 96
2000 SI WA 12:00:00 NR -9.15 96.25 874 866 ______P_______ -1 -9.15 96.25 20 5 95
2000 SI WA 15:00:00 NR -9.17 96.53 866 842 ______P_______ -1 -9.17 96.53 20 6 94
2000 SI WA 18:00:00 NR -9.19 96.81 842 818 ______P_______ -1 -9.19 96.81 20 6 93
2000 SI WA 21:00:00 NR -9.20 97.10 818 810 ______P_______ -1 -9.20 97.10 20 6 92
2000 SI WA 22:00:00 NR -9.20 97.20 25 1002 bom 810 803 ______O_______ -1 -9.20 97.20 20 25 1002 2.00 161 3 5 6 104
2000 SI WA 1999-12-10 00:00:00 TS -9.27 97.40 803 788 O_____P_____O_ jtwc_sh SH012000 -9.40 97.40 20 -1 -9.21 97.40 20 25 1001 161 -9.40 97.40 TC 20 6 111
2000 SI WA 03:00:00 TS -9.38 97.68 790 783 P_____P_____P_ SH012000 -9.50 97.67 20 -1 -9.26 97.70 20 25 1000 161 -9.50 97.67 TC 20 6 115
2000 SI WA 04:00:00 TS -9.44 97.77 25 1000 bom 783 783 P_____O_____P_ SH012000 -9.54 97.75 20 -1 -9.30 97.80 20 25 1000 2.00 161 3 5 -9.54 97.75 TC 20 6 124
2000 SI WA 06:00:00 TS -9.55 97.93 784 779 O_____P_____O_ jtwc_sh SH012000 -9.60 97.90 20 -1 -9.45 98.00 20 26 999 161 -9.60 97.90 TC 20 6 124
2000 SI WA 09:00:00 TS -9.70 98.16 780 780 P_____P_____P_ SH012000 -9.69 98.09 22 -1 -9.72 98.30 20 29 997 161 -9.69 98.09 TC 22 5 124
2000 SI WA 10:00:00 TS -9.75 98.23 30 997 bom 788 774 P_____O_____P_ SH012000 -9.73 98.15 23 -1 -9.80 98.40 20 30 997 2.50 161 3 5 -9.73 98.15 TC 23 6 119
2000 SI WA 12:00:00 TS -9.84 98.40 774 762 O_____P_____O_ jtwc_sh SH012000 -9.80 98.30 25 -1 -9.91 98.60 20 30 997 161 -9.80 98.30 TC 25 6 115
2000 SI WA 15:00:00 TS -9.97 98.72 771 764 P_____P_____P_ SH012000 -9.94 98.64 27 -1 -10.05 98.90 20 30 997 161 -9.94 98.64 TC 27 7 113
2000 SI WA 16:00:00 TS -10.02 98.84 30 997 bom 764 758 P_____O_____P_ SH012000 -9.99 98.76 28 -1 -10.10 99.00 20 30 997 2.50 161 3 5 -9.99 98.76 TC 28 8 117
2000 SI WA 18:00:00 TS -10.14 99.06 753 749 O_____P_____O_ jtwc_sh SH012000 -10.10 99.00 30 -1 -10.23 99.19 20 31 996 161 -10.10 99.00 TC 30 7 122
2000 SI WA 21:00:00 TS -10.35 99.37 749 745 P_____P_____P_ SH012000 -10.30 99.31 30 -1 -10.44 99.49 20 34 995 161 -10.30 99.31 TC 30 7 124
2000 SI WA 22:00:00 TS -10.41 99.47 35 995 bom 745 733 P_____O_____P_ SH012000 -10.37 99.41 30 -1 -10.50 99.60 30 35 995 3.00 161 3 5 -10.37 99.41 TC 30 7 122
2000 SI WA 1999-12-11 00:00:00 TS -10.54 99.68 733 719 O_____P_____O_ jtwc_sh SH012000 -10.50 99.60 30 -1 -10.61 99.84 30 36 993 161 -10.50 99.60 TC 30 7 118
2000 SI WA 03:00:00 TS -10.68 99.99 719 710 P_____P_____P_ SH012000 -10.65 99.89 32 -1 -10.75 100.20 30 39 990 161 -10.65 99.89 TC 32 7 116
2000 SI WA 04:00:00 TS -10.73 100.09 40 990 bom 710 700 P_____O_____P_ SH012000 -10.70 99.99 33 -1 -10.80 100.30 30 40 990 3.00 161 3 5 -10.70 99.99 TC 33 6 118
2000 SI WA 06:00:00 TS -10.84 100.28 700 690 O_____P_____O_ jtwc_sh SH012000 -10.80 100.20 35 0 -10.91 100.44 30 43 988 161 -10.80 100.20 TC 35 7 121
2000 SI WA 09:00:00 TS -11.01 100.57 690 690 P_____P_____P_ SH012000 -10.99 100.55 37 0 -11.06 100.62 30 48 985 161 -10.99 100.55 TC 37 7 121
2000 SI WA 10:00:00 TS -11.07 100.68 50 985 bom 690 682 P_____O_____P_ SH012000 -11.06 100.67 38 0 -11.10 100.70 30 50 985 3.50 161 3 5 -11.06 100.67 TC 38 7 119
2000 SI WA 12:00:00 TS -11.19 100.90 682 668 O_____P_____O_ jtwc_sh SH012000 -11.20 100.90 40 0 -11.16 100.91 30 50 985 161 -11.20 100.90 TC 40 7 117
2000 SI WA 15:00:00 TS -11.36 101.24 677 670 P_____P_____P_ SH012000 -11.41 101.22 40 0 -11.26 101.28 30 50 985 161 -11.41 101.22 TC 40 7 118
2000 SI WA 16:00:00 TS -11.42 101.34 50 985 bom 670 663 P_____O_____P_ SH012000 -11.47 101.31 40 0 -11.30 101.40 30 50 985 3.50 161 3 5 -11.47 101.31 TC 40 7 121
2000 SI WA 18:00:00 TS -11.54 101.55 665 660 O_____P_____O_ jtwc_sh SH012000 -11.60 101.50 40 0 -11.43 101.64 30 51 983 161 -11.60 101.50 TC 40 7 122
2000 SI WA 21:00:00 TS -11.72 101.83 663 657 P_____P_____P_ SH012000 -11.76 101.76 40 0 -11.64 101.99 30 54 980 161 -11.76 101.76 TC 40 7 122
2000 SI WA 22:00:00 TS -11.78 101.93 55 980 bom 667 655 P_____O_____P_ SH012000 -11.81 101.84 40 0 -11.70 102.10 30 55 980 4.00 161 3 5 -11.81 101.84 TC 40 6 117
2000 SI WA 1999-12-12 00:00:00 TS -11.86 102.10 664 653 O_____P_____O_ jtwc_sh SH012000 -11.90 102.00 40 0 -11.78 102.31 30 55 980 161 -11.90 102.00 TC 40 6 113
2000 SI WA 03:00:00 TS -11.96 102.38 658 653 P_____P_____P_ SH012000 -12.01 102.27 42 0 -11.87 102.61 30 55 980 161 -12.01 102.27 TC 42 6 111
2000 SI WA 04:00:00 TS -11.99 102.47 55 980 bom 653 648 P_____O_____P_ SH012000 -12.04 102.35 43 0 -11.90 102.70 30 55 980 4.00 161 3 5 -12.04 102.35 TC 43 5 114
2000 SI WA 06:00:00 TS -12.07 102.62 658 654 O_____P_____O_ jtwc_sh SH012000 -12.10 102.50 45 0 -12.00 102.87 30 53 981 161 -12.10 102.50 TC 45 5 122
2000 SI WA 09:00:00 TS -12.19 102.80 659 659 P_____P_____P_ SH012000 -12.21 102.64 45 0 -12.16 103.12 30 50 984 161 -12.21 102.64 TC 45 4 126
2000 SI WA 10:00:00 TS -12.23 102.85 50 985 bom 655 655 P_____O_____P_ SH012000 -12.24 102.68 45 0 -12.20 103.20 30 50 985 3.50 161 3 5 -12.24 102.68 TC 45 4 116
2000 SI WA 12:00:00 TS -12.28 102.99 661 645 O_____P_____O_ jtwc_sh SH012000 -12.30 102.80 45 0 -12.25 103.37 30 50 985 161 -12.30 102.80 TC 45 5 105
2000 SI WA 15:00:00 TS -12.34 103.29 645 639 P_____P_____P_ SH012000 -12.37 103.12 45 0 -12.29 103.62 30 50 985 161 -12.37 103.12 TC 45 6 100
2000 SI WA 16:00:00 TS -12.35 103.40 50 985 bom 649 638 P_____O_____P_ SH012000 -12.38 103.24 45 0 -12.30 103.70 30 50 985 3.50 161 3 5 -12.38 103.24 TC 45 7 95
2000 SI WA 18:00:00 TS -12.37 103.62 638 623 O_____P_____O_ jtwc_sh SH012000 -12.40 103.50 45 0 -12.31 103.87 30 50 985 161 -12.40 103.50 TC 45 6 92
2000 SI WA 21:00:00 TS -12.37 103.93 623 618 P_____P_____P_ SH012000 -12.41 103.84 47 0 -12.30 104.12 30 50 985 161 -12.41 103.84 TC 47 6 90
2000 SI WA 22:00:00 TS -12.37 104.04 50 985 bom 618 609 P_____O_____P_ SH012000 -12.41 103.96 48 0 -12.30 104.20 30 50 985 3.50 161 3 5 -12.41 103.96 TC 48 6 89
2000 SI WA 1999-12-13 00:00:00 TS -12.37 104.25 605 593 O_____P_____O_ jtwc_sh SH012000 -12.40 104.20 50 0 -12.30 104.36 30 46 986 161 -12.40 104.20 TC 50 7 90
2000 SI WA 03:00:00 TS -12.37 104.60 593 590 P_____P_____P_ SH012000 -12.40 104.59 52 0 -12.30 104.61 30 41 989 161 -12.40 104.59 TC 52 7 90
2000 SI WA 04:00:00 TS -12.37 104.72 40 990 bom 590 583 P_____O_____P_ SH012000 -12.40 104.73 53 0 -12.30 104.70 30 40 990 3.00 161 4 5 -12.40 104.73 TC 53 7 90
2000 SI WA 06:00:00 TS -12.37 104.97 580 572 O_____P_____O_ jtwc_sh SH012000 -12.40 105.00 55 0 -12.30 104.90 30 40 990 161 -12.40 105.00 TC 55 7 90
2000 SI WA 09:00:00 TS -12.37 105.35 570 568 P_____P_____P_ SH012000 -12.40 105.40 55 0 -12.30 105.26 30 40 990 161 -12.40 105.40 TC 55 8 90
2000 SI WA 10:00:00 TS -12.37 105.49 40 990 bom 568 565 P_____O_____P_ SH012000 -12.40 105.53 55 0 -12.30 105.40 30 40 990 3.00 161 4 5 -12.40 105.53 TC 55 8 90
2000 SI WA 12:00:00 TS -12.37 105.77 563 554 O_____P_____O_ jtwc_sh SH012000 -12.40 105.80 55 0 -12.30 105.71 30 40 990 161 -12.40 105.80 TC 55 8 91
2000 SI WA 15:00:00 TS -12.38 106.21 554 551 P_____P_____P_ SH012000 -12.41 106.20 55 0 -12.30 106.23 30 40 990 161 -12.41 106.20 TC 55 9 91
2000 SI WA 16:00:00 TS -12.38 106.36 40 990 bom 548 542 P_____O_____P_ SH012000 -12.42 106.33 55 0 -12.30 106.40 30 40 990 3.00 161 3 5 -12.42 106.33 TC 55 9 89
2000 SI WA 18:00:00 TS -12.37 106.64 542 522 O_____P_____O_ jtwc_sh SH012000 -12.40 106.60 55 0 -12.30 106.73 30 40 990 161 -12.40 106.60 TC 55 8 84
2000 SI WA 21:00:00 TS -12.30 107.07 520 519 P_____P_____P_ SH012000 -12.31 106.99 55 0 -12.30 107.23 30 40 990 161 -12.31 106.99 TC 55 8 81
2000 SI WA 22:00:00 TS -12.28 107.21 40 990 bom 519 502 P_____O_____P_ SH012000 -12.27 107.12 55 0 -12.30 107.40 30 40 990 3.00 161 3 5 -12.27 107.12 TC 55 9 81
2000 SI WA 1999-12-14 00:00:00 TS -12.23 107.51 502 494 O_____P_____O_ jtwc_sh SH012000 -12.20 107.40 55 0 -12.30 107.73 30 40 990 161 -12.20 107.40 TC 55 9 84
2000 SI WA 03:00:00 TS -12.20 108.01 494 493 P_____P_____P_ SH012000 -12.14 107.90 55 0 -12.30 108.23 30 40 990 161 -12.14 107.90 TC 55 10 86
2000 SI WA 04:00:00 TS -12.19 108.18 40 990 bom 493 492 P_____O_____P_ SH012000 -12.13 108.07 55 0 -12.30 108.40 30 40 990 3.00 161 4 5 -12.13 108.07 TC 55 10 87
2000 SI WA 06:00:00 TS -12.17 108.52 492 474 O_____P_____O_ jtwc_sh SH012000 -12.10 108.40 55 0 -12.30 108.76 30 40 990 161 -12.10 108.40 TC 55 9 86
2000 SI WA 09:00:00 TS -12.13 108.98 474 470 P_____P_____P_ SH012000 -12.04 108.81 55 0 -12.30 109.32 30 40 990 161 -12.04 108.81 TC 55 9 85
2000 SI WA 10:00:00 TS -12.12 109.12 40 990 bom 470 459 P_____O_____P_ SH012000 -12.03 108.94 55 0 -12.30 109.50 30 40 990 3.00 161 4 5 -12.03 108.94 TC 55 9 86
2000 SI WA 12:00:00 TS -12.10 109.41 459 447 O_____P_____O_ jtwc_sh SH012000 -12.00 109.20 55 0 -12.29 109.84 30 40 990 161 -12.00 109.20 TC 55 9 88
2000 SI WA 15:00:00 TS -12.09 109.87 445 443 P_____P_____P_ SH012000 -11.98 109.64 55 0 -12.29 110.34 30 40 990 161 -11.98 109.64 TC 55 9 89
2000 SI WA 16:00:00 TS -12.09 110.03 40 990 bom 443 436 P_____O_____P_ SH012000 -11.99 109.79 55 0 -12.30 110.50 30 40 990 3.00 161 3 5 -11.99 109.79 TC 55 9 93
2000 SI WA 18:00:00 TS -12.11 110.35 436 425 O_____P_____O_ jtwc_sh SH012000 -12.00 110.10 55 0 -12.33 110.84 30 40 990 161 -12.00 110.10 TC 55 9 94
2000 SI WA 21:00:00 TS -12.14 110.79 425 423 P_____P_____P_ SH012000 -12.02 110.51 55 0 -12.38 111.34 30 40 990 161 -12.02 110.51 TC 55 9 95
2000 SI WA 22:00:00 TS -12.16 110.94 40 990 bom 434 429 P_____O_____P_ SH012000 -12.04 110.66 55 0 -12.40 111.50 30 40 990 3.00 161 3 5 -12.04 110.66 TC 55 9 98
2000 SI WA 1999-12-15 00:00:00 TS -12.21 111.27 427 426 O_____P_____O_ jtwc_sh SH012000 -12.10 111.00 55 0 -12.43 111.80 30 40 990 161 -12.10 111.00 TC 55 11 102
2000 SI WA 03:00:00 TS -12.34 111.88 437 437 P_____P_____P_ SH012000 -12.28 111.69 57 0 -12.48 112.24 30 40 990 161 -12.28 111.69 TC 57 12 103
2000 SI WA 04:00:00 TS -12.40 112.09 40 990 bom 450 450 P_____O_____P_ SH012000 -12.35 111.94 58 0 -12.50 112.40 30 40 990 3.00 161 3 5 -12.35 111.94 TC 58 13 105
2000 SI WA 06:00:00 TS -12.51 112.52 459 453 O_____P_____O_ jtwc_sh SH012000 -12.50 112.40 60 0 -12.53 112.76 30 40 990 161 -12.50 112.40 TC 60 12 105
2000 SI WA 09:00:00 TS -12.66 113.05 465 462 P_____P_____P_ SH012000 -12.67 112.92 60 0 -12.63 113.32 30 40 990 161 -12.67 112.92 TC 60 11 107
2000 SI WA 10:00:00 TS -12.72 113.22 40 990 bom 462 459 P_____O_____P_ SH012000 -12.73 113.08 60 0 -12.70 113.50 30 40 990 3.00 161 3 5 -12.73 113.08 TC 60 11 117
2000 SI WA 12:00:00 TS -12.90 113.55 474 472 O_____P_____O_ jtwc_sh SH012000 -12.90 113.40 60 0 -12.90 113.84 30 40 990 161 -12.90 113.40 TC 60 12 124
2000 SI WA 15:00:00 TS -13.27 114.05 506 506 P_____P_____P_ SH012000 -13.23 113.91 60 0 -13.33 114.34 30 40 991 161 -13.23 113.91 TC 60 13 128
2000 SI WA 16:00:00 TS -13.41 114.23 40 992 bom 517 516 P_____O_____P_ SH012000 -13.37 114.10 60 0 -13.50 114.50 30 40 992 3.00 161 3 5 -13.37 114.10 TC 60 15 132
2000 SI WA 18:00:00 TS -13.75 114.61 548 548 O_____P_____O_ jtwc_sh SH012000 -13.70 114.50 60 0 -13.85 114.82 30 40 992 161 -13.70 114.50 TC 60 17 133
2000 SI WA 21:00:00 TS -14.36 115.26 616 616 P_____P_____P_ SH012000 -14.33 115.23 60 0 -14.41 115.32 30 40 992 161 -14.33 115.23 TC 60 18 134
2000 SI WA 22:00:00 TS -14.57 115.50 40 992 bom 634 633 P_____O_____P_ SH012000 -14.56 115.49 60 0 -14.60 115.50 30 40 992 3.00 161 3 5 -14.56 115.49 TC 60 18 133
2000 SI WA 1999-12-16 00:00:00 TS -14.98 115.95 630 570 O_____P_____O_ jtwc_sh SH012000 -15.00 116.00 60 0 -14.93 115.86 30 40 992 161 -15.00 116.00 TC 60 17 131
2000 SI WA 03:00:00 TS -15.51 116.60 570 543 P_____P_____P_ SH012000 -15.56 116.67 55 0 -15.42 116.46 30 40 992 161 -15.56 116.67 TC 55 17 130
2000 SI WA 04:00:00 TS -15.69 116.82 40 992 bom 543 500 P_____O_____P_ SH012000 -15.74 116.89 53 0 -15.60 116.70 30 40 992 3.00 161 3 5 -15.74 116.89 TC 53 17 130
2000 SI WA 06:00:00 TS -16.06 117.28 486 467 O_____P_____O_ jtwc_sh SH012000 -16.10 117.30 50 0 -15.99 117.23 30 40 992 161 -16.10 117.30 TC 50 18 131
2000 SI WA 07:00:00 TS -16.26 117.51 40 992 bom 457 400 P_____O_____P_ SH012000 -16.30 117.52 49 0 -16.20 117.50 30 40 992 3.00 161 3 5 -16.30 117.52 TC 49 18 134
2000 SI WA 09:00:00 TS -16.69 117.96 397 373 P_____P_____P_ SH012000 -16.70 117.94 47 0 -16.68 117.99 30 36 993 125 -16.70 117.94 TC 47 18 136
2000 SI WA 10:00:00 TS -16.90 118.16 35 994 bom 370 330 P_____O_____P_ SH012000 -16.90 118.14 46 0 -16.90 118.20 30 35 994 3.00 107 3 5 -16.90 118.14 TC 46 16 138
2000 SI WA 12:00:00 TS -17.26 118.50 319 269 O_____P_____O_ jtwc_sh SH012000 -17.30 118.50 45 0 -17.19 118.50 30 35 994 107 -17.30 118.50 TC 45 13 140
2000 SI WA 15:00:00 TS -17.75 118.89 258 246 P_____P_____P_ SH012000 -17.88 118.94 47 0 -17.49 118.80 30 35 994 107 -17.88 118.94 TC 47 12 143
2000 SI WA 16:00:00 TS -17.91 119.01 35 994 bom 246 210 P_____O_____P_ SH012000 -18.06 119.06 48 0 -17.60 118.90 30 35 994 3.00 107 3 5 -18.06 119.06 TC 48 12 144
2000 SI WA 18:00:00 TS -18.24 119.26 208 146 O_____P_____O_ jtwc_sh SH012000 -18.40 119.30 50 0 -17.91 119.18 30 35 994 107 -18.40 119.30 TC 50 12 142
2000 SI WA 21:00:00 TS -18.69 119.65 146 130 P_____P_____P_ SH012000 -18.82 119.65 52 0 -18.43 119.64 30 35 994 107 -18.82 119.65 TC 52 12 141
2000 SI WA 22:00:00 TS -18.83 119.78 35 994 bom 130 91 P_____O_____P_ SH012000 -18.95 119.76 53 0 -18.60 119.80 30 35 994 3.00 107 3 5 -18.95 119.76 TC 53 11 139
2000 SI WA 1999-12-17 00:00:00 TS -19.12 120.04 91 35 O_____P_____O_ jtwc_sh SH012000 -19.20 120.00 55 0 -18.96 120.12 30 35 994 107 -19.20 120.00 TC 55 12 139
2000 SI WA 03:00:00 TS -19.55 120.44 24 10 P_____P_____P_ SH012000 -19.60 120.38 45 0 -19.46 120.57 30 35 994 107 -19.60 120.38 TC 45 11 138
2000 SI WA 04:00:00 TS -19.69 120.57 35 994 bom 10 0 P_____O_____P_ SH012000 -19.73 120.51 41 0 -19.60 120.70 30 35 994 3.00 107 3 4 -19.73 120.51 TC 41 11 136
2000 SI WA 06:00:00 TS -19.94 120.84 0 0 O_____P_____O_ jtwc_sh SH012000 -20.00 120.80 35 0 -19.81 120.91 30 35 994 107 -20.00 120.80 TC 35 11 136
2000 SI WA 07:00:00 TS -20.07 120.97 35 995 bom 0 0 P_____O_____P_ SH012000 -20.13 120.95 34 0 -19.90 121.00 30 35 995 3.00 107 3 4 -20.13 120.95 TC 34 11 134
2000 SI WA 09:00:00 TS -20.32 121.26 0 0 P_____P_____P_ SH012000 -20.40 121.28 32 -1 -20.10 121.20 30 28 995 107 -20.40 121.28 TC 32 12 133
2000 SI WA 10:00:00 TS -20.47 121.42 25 995 bom 0 0 P_____O_____P_ SH012000 -20.53 121.45 31 -1 -20.20 121.30 20 25 995 107 3 5 -20.53 121.45 TC 31 14 133
2000 SI WA 12:00:00 TS -20.80 121.80 0 O___________O_ jtwc_sh SH012000 -20.80 121.80 30 -1 20 -20.80 121.80 TC 30 15 133